sensor_id;sensor_type;location;lat;lon;timestamp;pressure;altitude;pressure_sealevel;temperature;humidity
64292;BME280;50628;51.008;13.658;2022-07-04T00:03:07;99590.94;;;19.90;72.46
64292;BME280;50628;51.008;13.658;2022-07-04T00:08:09;99591.34;;;20.08;71.88
64292;BME280;50628;51.008;13.658;2022-07-04T00:13:10;99596.56;;;20.02;72.34
64292;BME280;50628;51.008;13.658;2022-07-04T00:18:14;99610.66;;;19.58;73.65
64292;BME280;50628;51.008;13.658;2022-07-04T00:23:16;99619.19;;;19.68;72.77
64292;BME280;50628;51.008;13.658;2022-07-04T00:28:17;99628.88;;;19.82;72.32
64292;BME280;50628;51.008;13.658;2022-07-04T00:33:20;99623.66;;;19.89;72.07
64292;BME280;50628;51.008;13.658;2022-07-04T00:38:22;99630.41;;;19.92;71.40
64292;BME280;50628;51.008;13.658;2022-07-04T00:43:25;99626.34;;;19.96;71.55
64292;BME280;50628;51.008;13.658;2022-07-04T00:48:28;99629.78;;;20.32;67.01
64292;BME280;50628;51.008;13.658;2022-07-04T00:53:30;99643.56;;;20.28;68.31
64292;BME280;50628;51.008;13.658;2022-07-04T00:58:33;99658.41;;;20.50;64.25
64292;BME280;50628;51.008;13.658;2022-07-04T01:03:36;99665.94;;;20.53;65.18
64292;BME280;50628;51.008;13.658;2022-07-04T01:08:41;99681.59;;;20.70;63.20
64292;BME280;50628;51.008;13.658;2022-07-04T01:13:43;99689.94;;;20.73;60.41
64292;BME280;50628;51.008;13.658;2022-07-04T01:18:46;99699.78;;;20.80;58.96
64292;BME280;50628;51.008;13.658;2022-07-04T01:23:49;99703.66;;;20.84;58.23
64292;BME280;50628;51.008;13.658;2022-07-04T01:28:51;99709.41;;;20.87;58.06
64292;BME280;50628;51.008;13.658;2022-07-04T01:33:52;99723.13;;;20.76;58.29
64292;BME280;50628;51.008;13.658;2022-07-04T01:38:56;99726.97;;;20.73;58.79
64292;BME280;50628;51.008;13.658;2022-07-04T01:43:59;99731.84;;;20.70;58.49
64292;BME280;50628;51.008;13.658;2022-07-04T01:49:01;99732.31;;;20.59;58.76
64292;BME280;50628;51.008;13.658;2022-07-04T01:54:04;99743.75;;;20.44;59.24
64292;BME280;50628;51.008;13.658;2022-07-04T01:59:08;99742.50;;;20.40;59.43
64292;BME280;50628;51.008;13.658;2022-07-04T02:04:10;99755.06;;;20.38;58.98
64292;BME280;50628;51.008;13.658;2022-07-04T02:09:13;99761.50;;;20.29;59.33
64292;BME280;50628;51.008;13.658;2022-07-04T02:14:18;99757.69;;;20.17;60.33
64292;BME280;50628;51.008;13.658;2022-07-04T02:19:19;99764.63;;;20.03;60.90
64292;BME280;50628;51.008;13.658;2022-07-04T02:24:22;99778.50;;;19.90;61.39
64292;BME280;50628;51.008;13.658;2022-07-04T02:29:24;99789.53;;;19.94;61.34
64292;BME280;50628;51.008;13.658;2022-07-04T02:34:26;99791.34;;;19.78;61.82
64292;BME280;50628;51.008;13.658;2022-07-04T02:39:29;99791.34;;;19.78;62.03
64292;BME280;50628;51.008;13.658;2022-07-04T02:44:31;99804.00;;;19.68;62.38
64292;BME280;50628;51.008;13.658;2022-07-04T02:49:34;99801.03;;;19.63;62.61
64292;BME280;50628;51.008;13.658;2022-07-04T02:54:37;99812.50;;;19.55;63.39
64292;BME280;50628;51.008;13.658;2022-07-04T02:59:39;99807.09;;;19.34;65.06
64292;BME280;50628;51.008;13.658;2022-07-04T03:04:41;99817.41;;;19.43;63.66
64292;BME280;50628;51.008;13.658;2022-07-04T03:09:44;99821.31;;;19.33;64.21
64292;BME280;50628;51.008;13.658;2022-07-04T03:14:45;99816.59;;;19.20;64.65
64292;BME280;50628;51.008;13.658;2022-07-04T03:19:47;99816.16;;;19.16;64.70
64292;BME280;50628;51.008;13.658;2022-07-04T03:24:50;99821.44;;;19.16;65.24
64292;BME280;50628;51.008;13.658;2022-07-04T03:29:52;99829.78;;;19.05;65.81
64292;BME280;50628;51.008;13.658;2022-07-04T03:34:53;99838.53;;;18.97;65.97
64292;BME280;50628;51.008;13.658;2022-07-04T03:39:57;99837.50;;;18.84;66.40
64292;BME280;50628;51.008;13.658;2022-07-04T03:44:58;99857.94;;;19.05;66.04
64292;BME280;50628;51.008;13.658;2022-07-04T03:50:00;99854.78;;;18.86;66.97
64292;BME280;50628;51.008;13.658;2022-07-04T03:55:05;99864.09;;;18.97;66.62
64292;BME280;50628;51.008;13.658;2022-07-04T04:00:07;99863.53;;;19.10;66.65
64292;BME280;50628;51.008;13.658;2022-07-04T04:05:12;99861.00;;;19.16;66.89
64292;BME280;50628;51.008;13.658;2022-07-04T04:10:32;99862.53;;;19.11;67.39
64292;BME280;50628;51.008;13.658;2022-07-04T04:15:34;99866.69;;;19.28;67.26
64292;BME280;50628;51.008;13.658;2022-07-04T04:20:35;99865.75;;;19.21;67.63
64292;BME280;50628;51.008;13.658;2022-07-04T04:25:39;99864.38;;;19.25;67.51
64292;BME280;50628;51.008;13.658;2022-07-04T04:30:40;99863.88;;;19.30;67.90
64292;BME280;50628;51.008;13.658;2022-07-04T04:35:42;99875.00;;;19.40;67.86
64292;BME280;50628;51.008;13.658;2022-07-04T04:40:45;99890.31;;;19.44;68.70
64292;BME280;50628;51.008;13.658;2022-07-04T04:45:47;99909.97;;;19.42;69.09
64292;BME280;50628;51.008;13.658;2022-07-04T04:50:49;99908.03;;;19.36;69.75
64292;BME280;50628;51.008;13.658;2022-07-04T04:55:52;99916.25;;;19.18;70.78
64292;BME280;50628;51.008;13.658;2022-07-04T05:00:54;99917.88;;;18.96;71.87
64292;BME280;50628;51.008;13.658;2022-07-04T05:05:56;99928.47;;;18.88;72.61
64292;BME280;50628;51.008;13.658;2022-07-04T05:10:59;99924.69;;;18.74;73.49
64292;BME280;50628;51.008;13.658;2022-07-04T05:16:01;99930.78;;;18.74;73.94
64292;BME280;50628;51.008;13.658;2022-07-04T05:21:03;99930.38;;;18.54;74.79
64292;BME280;50628;51.008;13.658;2022-07-04T05:26:06;99923.72;;;18.75;74.99
64292;BME280;50628;51.008;13.658;2022-07-04T05:31:08;99931.56;;;18.91;74.49
64292;BME280;50628;51.008;13.658;2022-07-04T05:36:09;99942.63;;;19.18;73.61
64292;BME280;50628;51.008;13.658;2022-07-04T05:41:12;99940.47;;;19.21;73.57
64292;BME280;50628;51.008;13.658;2022-07-04T05:46:14;99946.91;;;19.42;72.50
64292;BME280;50628;51.008;13.658;2022-07-04T05:51:16;99947.50;;;19.75;71.79
64292;BME280;50628;51.008;13.658;2022-07-04T05:56:20;99950.91;;;19.84;71.12
64292;BME280;50628;51.008;13.658;2022-07-04T06:01:21;99945.88;;;19.74;71.30
64292;BME280;50628;51.008;13.658;2022-07-04T06:06:23;99950.38;;;19.88;70.57
64292;BME280;50628;51.008;13.658;2022-07-04T06:11:27;99951.00;;;19.91;70.82
64292;BME280;50628;51.008;13.658;2022-07-04T06:16:28;99954.34;;;20.22;70.18
64292;BME280;50628;51.008;13.658;2022-07-04T06:21:30;99952.72;;;20.21;69.50
64292;BME280;50628;51.008;13.658;2022-07-04T06:26:33;99950.88;;;20.37;69.58
64292;BME280;50628;51.008;13.658;2022-07-04T06:31:35;99961.47;;;20.37;68.57
64292;BME280;50628;51.008;13.658;2022-07-04T06:36:37;99955.28;;;20.59;68.30
64292;BME280;50628;51.008;13.658;2022-07-04T06:41:40;99953.19;;;20.69;66.95
64292;BME280;50628;51.008;13.658;2022-07-04T06:46:42;99962.84;;;20.77;65.64
64292;BME280;50628;51.008;13.658;2022-07-04T06:51:44;99947.91;;;21.06;65.81
64292;BME280;50628;51.008;13.658;2022-07-04T06:56:47;99951.19;;;21.08;64.75
64292;BME280;50628;51.008;13.658;2022-07-04T07:01:49;99940.19;;;21.26;64.64
64292;BME280;50628;51.008;13.658;2022-07-04T07:06:51;99938.97;;;21.07;64.40
64292;BME280;50628;51.008;13.658;2022-07-04T07:11:54;99943.69;;;21.48;63.41
64292;BME280;50628;51.008;13.658;2022-07-04T07:16:55;99956.31;;;21.74;62.00
64292;BME280;50628;51.008;13.658;2022-07-04T07:21:57;99951.03;;;21.74;61.23
64292;BME280;50628;51.008;13.658;2022-07-04T07:27:00;99954.50;;;21.74;61.07
64292;BME280;50628;51.008;13.658;2022-07-04T07:32:03;99949.59;;;21.71;60.99
64292;BME280;50628;51.008;13.658;2022-07-04T07:37:05;99952.88;;;21.73;60.46
64292;BME280;50628;51.008;13.658;2022-07-04T07:42:09;99939.31;;;21.90;60.72
64292;BME280;50628;51.008;13.658;2022-07-04T07:47:10;99942.69;;;22.27;59.32
64292;BME280;50628;51.008;13.658;2022-07-04T07:52:12;99951.28;;;22.07;56.96
64292;BME280;50628;51.008;13.658;2022-07-04T07:57:16;99947.00;;;22.06;57.45
64292;BME280;50628;51.008;13.658;2022-07-04T08:02:18;99942.28;;;22.01;56.27
64292;BME280;50628;51.008;13.658;2022-07-04T08:07:19;99942.84;;;22.53;55.03
64292;BME280;50628;51.008;13.658;2022-07-04T08:12:23;99941.50;;;22.36;55.40
64292;BME280;50628;51.008;13.658;2022-07-04T08:17:24;99944.56;;;22.39;55.97
64292;BME280;50628;51.008;13.658;2022-07-04T08:22:26;99942.50;;;22.07;57.82
64292;BME280;50628;51.008;13.658;2022-07-04T08:27:30;99945.91;;;22.22;57.75
64292;BME280;50628;51.008;13.658;2022-07-04T08:32:32;99939.56;;;22.51;56.58
64292;BME280;50628;51.008;13.658;2022-07-04T08:37:33;99923.50;;;22.73;55.85
64292;BME280;50628;51.008;13.658;2022-07-04T08:42:38;99926.41;;;22.36;56.63
64292;BME280;50628;51.008;13.658;2022-07-04T08:47:42;99932.34;;;22.38;57.20
64292;BME280;50628;51.008;13.658;2022-07-04T08:52:47;99937.97;;;22.70;56.20
64292;BME280;50628;51.008;13.658;2022-07-04T08:57:57;99935.78;;;22.74;55.50
64292;BME280;50628;51.008;13.658;2022-07-04T09:03:18;99933.28;;;23.14;54.32
64292;BME280;50628;51.008;13.658;2022-07-04T09:08:20;99942.28;;;23.46;53.12
64292;BME280;50628;51.008;13.658;2022-07-04T09:13:25;99939.28;;;22.87;54.61
64292;BME280;50628;51.008;13.658;2022-07-04T09:18:29;99937.16;;;23.18;54.00
64292;BME280;50628;51.008;13.658;2022-07-04T09:23:32;99936.97;;;23.32;52.77
64292;BME280;50628;51.008;13.658;2022-07-04T09:28:36;99934.69;;;23.23;52.67
64292;BME280;50628;51.008;13.658;2022-07-04T09:33:49;99939.03;;;23.70;50.37
64292;BME280;50628;51.008;13.658;2022-07-04T09:39:05;99947.25;;;23.89;51.28
64292;BME280;50628;51.008;13.658;2022-07-04T09:44:11;99936.56;;;24.15;49.94
64292;BME280;50628;51.008;13.658;2022-07-04T09:49:12;99942.34;;;23.92;49.63
64292;BME280;50628;51.008;13.658;2022-07-04T09:54:17;99936.81;;;23.67;50.48
64292;BME280;50628;51.008;13.658;2022-07-04T09:59:21;99926.56;;;24.11;48.65
64292;BME280;50628;51.008;13.658;2022-07-04T10:04:42;99920.06;;;23.87;50.14
64292;BME280;50628;51.008;13.658;2022-07-04T10:09:44;99914.34;;;23.90;50.26
64292;BME280;50628;51.008;13.658;2022-07-04T10:14:50;99914.63;;;24.92;47.53
64292;BME280;50628;51.008;13.658;2022-07-04T10:19:53;99908.22;;;24.68;47.11
64292;BME280;50628;51.008;13.658;2022-07-04T10:24:55;99898.81;;;24.65;47.55
64292;BME280;50628;51.008;13.658;2022-07-04T10:30:01;99889.84;;;24.91;45.48
64292;BME280;50628;51.008;13.658;2022-07-04T10:35:04;99890.09;;;24.90;45.59
64292;BME280;50628;51.008;13.658;2022-07-04T10:40:08;99884.78;;;25.15;45.24
64292;BME280;50628;51.008;13.658;2022-07-04T10:45:31;99881.66;;;24.93;46.28
64292;BME280;50628;51.008;13.658;2022-07-04T10:50:33;99882.69;;;25.30;44.19
64292;BME280;50628;51.008;13.658;2022-07-04T10:55:40;99874.97;;;25.15;44.66
64292;BME280;50628;51.008;13.658;2022-07-04T11:01:13;99872.38;;;25.59;43.42
64292;BME280;50628;51.008;13.658;2022-07-04T11:06:51;99870.88;;;26.43;42.31
64292;BME280;50628;51.008;13.658;2022-07-04T11:11:56;99865.00;;;25.79;43.90
64292;BME280;50628;51.008;13.658;2022-07-04T11:17:02;99866.28;;;26.69;41.25
64292;BME280;50628;51.008;13.658;2022-07-04T11:22:05;99866.41;;;27.16;39.87
64292;BME280;50628;51.008;13.658;2022-07-04T11:27:08;99865.56;;;27.69;38.51
64292;BME280;50628;51.008;13.658;2022-07-04T11:32:11;99856.41;;;26.21;42.41
64292;BME280;50628;51.008;13.658;2022-07-04T11:37:13;99860.34;;;27.51;39.41
64292;BME280;50628;51.008;13.658;2022-07-04T11:42:15;99858.69;;;27.38;39.66
64292;BME280;50628;51.008;13.658;2022-07-04T11:47:37;99856.13;;;28.42;36.94
64292;BME280;50628;51.008;13.658;2022-07-04T11:52:42;99856.53;;;28.34;37.34
64292;BME280;50628;51.008;13.658;2022-07-04T11:57:46;99846.94;;;27.74;39.08
64292;BME280;50628;51.008;13.658;2022-07-04T12:02:51;99844.81;;;26.64;40.57
64292;BME280;50628;51.008;13.658;2022-07-04T12:07:53;99853.81;;;27.94;38.98
64292;BME280;50628;51.008;13.658;2022-07-04T12:12:57;99842.66;;;28.49;37.24
64292;BME280;50628;51.008;13.658;2022-07-04T12:18:01;99848.28;;;29.77;34.43
64292;BME280;50628;51.008;13.658;2022-07-04T12:23:04;99840.50;;;30.42;32.85
64292;BME280;50628;51.008;13.658;2022-07-04T12:28:08;99841.94;;;29.50;34.80
64292;BME280;50628;51.008;13.658;2022-07-04T12:33:11;99838.25;;;29.34;35.12
64292;BME280;50628;51.008;13.658;2022-07-04T12:38:15;99839.63;;;29.53;34.21
64292;BME280;50628;51.008;13.658;2022-07-04T12:43:18;99844.91;;;29.15;35.25
64292;BME280;50628;51.008;13.658;2022-07-04T12:48:23;99829.53;;;29.10;35.07
64292;BME280;50628;51.008;13.658;2022-07-04T12:53:25;99828.78;;;28.52;36.10
64292;BME280;50628;51.008;13.658;2022-07-04T12:58:27;99825.69;;;29.95;33.81
64292;BME280;50628;51.008;13.658;2022-07-04T13:03:30;99833.13;;;29.88;34.33
64292;BME280;50628;51.008;13.658;2022-07-04T13:08:32;99826.44;;;30.13;33.62
64292;BME280;50628;51.008;13.658;2022-07-04T13:13:34;99827.19;;;30.08;33.67
64292;BME280;50628;51.008;13.658;2022-07-04T13:18:37;99832.19;;;29.77;33.55
64292;BME280;50628;51.008;13.658;2022-07-04T13:23:39;99832.88;;;30.83;32.02
64292;BME280;50628;51.008;13.658;2022-07-04T13:28:40;99832.88;;;30.83;31.28
64292;BME280;50628;51.008;13.658;2022-07-04T13:33:44;99830.94;;;29.85;33.22
64292;BME280;50628;51.008;13.658;2022-07-04T13:38:45;99828.91;;;30.14;32.29
64292;BME280;50628;51.008;13.658;2022-07-04T13:43:47;99823.63;;;31.01;31.17
64292;BME280;50628;51.008;13.658;2022-07-04T13:48:50;99821.19;;;31.37;30.39
64292;BME280;50628;51.008;13.658;2022-07-04T13:53:52;99812.84;;;30.96;30.50
64292;BME280;50628;51.008;13.658;2022-07-04T13:58:54;99811.72;;;31.66;29.30
64292;BME280;50628;51.008;13.658;2022-07-04T14:03:57;99807.97;;;30.66;30.24
64292;BME280;50628;51.008;13.658;2022-07-04T14:08:59;99803.00;;;31.97;27.92
64292;BME280;50628;51.008;13.658;2022-07-04T14:14:00;99800.84;;;31.94;28.01
64292;BME280;50628;51.008;13.658;2022-07-04T14:19:03;99809.78;;;32.20;27.59
64292;BME280;50628;51.008;13.658;2022-07-04T14:24:06;99802.97;;;31.07;28.77
64292;BME280;50628;51.008;13.658;2022-07-04T14:29:08;99791.25;;;31.60;27.76
64292;BME280;50628;51.008;13.658;2022-07-04T14:34:11;99782.28;;;32.02;27.12
64292;BME280;50628;51.008;13.658;2022-07-04T14:39:13;99778.88;;;32.43;26.96
64292;BME280;50628;51.008;13.658;2022-07-04T14:44:15;99781.09;;;32.87;26.61
64292;BME280;50628;51.008;13.658;2022-07-04T14:49:18;99777.84;;;32.69;26.37
64292;BME280;50628;51.008;13.658;2022-07-04T14:54:20;99767.88;;;32.85;25.74
64292;BME280;50628;51.008;13.658;2022-07-04T14:59:22;99765.41;;;32.43;26.05
64292;BME280;50628;51.008;13.658;2022-07-04T15:04:25;99769.34;;;29.95;28.54
64292;BME280;50628;51.008;13.658;2022-07-04T15:09:27;99773.75;;;29.63;28.97
64292;BME280;50628;51.008;13.658;2022-07-04T15:14:29;99767.91;;;29.10;29.86
64292;BME280;50628;51.008;13.658;2022-07-04T15:19:32;99758.06;;;30.43;26.21
64292;BME280;50628;51.008;13.658;2022-07-04T15:24:55;99745.81;;;30.25;26.54
64292;BME280;50628;51.008;13.658;2022-07-04T15:29:56;99757.72;;;31.36;25.27
64292;BME280;50628;51.008;13.658;2022-07-04T15:34:59;99757.38;;;31.27;24.75
64292;BME280;50628;51.008;13.658;2022-07-04T15:40:01;99756.50;;;31.54;24.75
64292;BME280;50628;51.008;13.658;2022-07-04T15:45:04;99752.66;;;31.02;25.66
64292;BME280;50628;51.008;13.658;2022-07-04T15:50:07;99757.59;;;31.53;24.89
64292;BME280;50628;51.008;13.658;2022-07-04T15:55:09;99756.84;;;30.55;25.49
64292;BME280;50628;51.008;13.658;2022-07-04T16:00:12;99759.19;;;30.47;25.63
64292;BME280;50628;51.008;13.658;2022-07-04T16:05:15;99750.72;;;30.33;26.44
64292;BME280;50628;51.008;13.658;2022-07-04T16:10:17;99757.47;;;30.13;26.99
64292;BME280;50628;51.008;13.658;2022-07-04T16:15:19;99761.09;;;30.51;25.77
64292;BME280;50628;51.008;13.658;2022-07-04T16:20:22;99762.38;;;29.55;27.52
64292;BME280;50628;51.008;13.658;2022-07-04T16:25:24;99753.19;;;29.29;28.62
64292;BME280;50628;51.008;13.658;2022-07-04T16:30:25;99745.75;;;28.35;29.73
64292;BME280;50628;51.008;13.658;2022-07-04T16:35:29;99742.31;;;28.68;29.20
64292;BME280;50628;51.008;13.658;2022-07-04T16:40:31;99733.88;;;28.31;29.88
64292;BME280;50628;51.008;13.658;2022-07-04T16:45:32;99723.28;;;28.08;30.71
64292;BME280;50628;51.008;13.658;2022-07-04T16:50:36;99724.91;;;27.68;30.59
64292;BME280;50628;51.008;13.658;2022-07-04T16:55:39;99717.06;;;27.90;30.73
64292;BME280;50628;51.008;13.658;2022-07-04T17:00:41;99723.91;;;27.34;31.45
64292;BME280;50628;51.008;13.658;2022-07-04T17:05:45;99730.44;;;27.78;31.45
64292;BME280;50628;51.008;13.658;2022-07-04T17:10:47;99739.88;;;27.93;31.07
64292;BME280;50628;51.008;13.658;2022-07-04T17:15:49;99745.13;;;27.64;31.72
64292;BME280;50628;51.008;13.658;2022-07-04T17:20:52;99746.97;;;27.87;31.14
64292;BME280;50628;51.008;13.658;2022-07-04T17:25:55;99763.03;;;27.05;32.65
64292;BME280;50628;51.008;13.658;2022-07-04T17:30:58;99745.03;;;27.12;32.96
64292;BME280;50628;51.008;13.658;2022-07-04T17:36:01;99763.94;;;26.98;32.81
64292;BME280;50628;51.008;13.658;2022-07-04T17:41:03;99762.44;;;26.91;32.33
64292;BME280;50628;51.008;13.658;2022-07-04T17:46:22;99772.28;;;26.79;33.23
64292;BME280;50628;51.008;13.658;2022-07-04T17:51:25;99765.19;;;26.72;33.57
64292;BME280;50628;51.008;13.658;2022-07-04T17:56:27;99765.47;;;27.06;33.02
64292;BME280;50628;51.008;13.658;2022-07-04T18:01:29;99770.63;;;26.66;34.23
64292;BME280;50628;51.008;13.658;2022-07-04T18:06:32;99771.88;;;26.33;35.17
64292;BME280;50628;51.008;13.658;2022-07-04T18:11:35;99763.31;;;26.12;35.93
64292;BME280;50628;51.008;13.658;2022-07-04T18:16:37;99762.03;;;26.03;36.29
64292;BME280;50628;51.008;13.658;2022-07-04T18:21:40;99765.34;;;25.99;35.89
64292;BME280;50628;51.008;13.658;2022-07-04T18:26:42;99773.72;;;26.02;36.15
64292;BME280;50628;51.008;13.658;2022-07-04T18:31:49;99772.16;;;25.95;36.55
64292;BME280;50628;51.008;13.658;2022-07-04T18:36:52;99769.31;;;25.53;37.62
64292;BME280;50628;51.008;13.658;2022-07-04T18:41:54;99772.31;;;25.63;37.63
64292;BME280;50628;51.008;13.658;2022-07-04T18:47:13;99777.78;;;25.68;37.84
64292;BME280;50628;51.008;13.658;2022-07-04T18:52:16;99780.34;;;25.75;37.83
64292;BME280;50628;51.008;13.658;2022-07-04T18:57:18;99784.28;;;25.72;37.52
64292;BME280;50628;51.008;13.658;2022-07-04T19:02:20;99783.63;;;25.58;38.34
64292;BME280;50628;51.008;13.658;2022-07-04T19:07:23;99782.72;;;25.46;38.29
64292;BME280;50628;51.008;13.658;2022-07-04T19:12:24;99790.91;;;25.26;38.64
64292;BME280;50628;51.008;13.658;2022-07-04T19:17:27;99792.94;;;25.24;37.96
64292;BME280;50628;51.008;13.658;2022-07-04T19:22:30;99802.94;;;25.03;38.87
64292;BME280;50628;51.008;13.658;2022-07-04T19:27:32;99808.53;;;24.95;38.55
64292;BME280;50628;51.008;13.658;2022-07-04T19:32:35;99803.38;;;25.00;38.29
64292;BME280;50628;51.008;13.658;2022-07-04T19:37:38;99820.56;;;24.73;39.60
64292;BME280;50628;51.008;13.658;2022-07-04T19:42:41;99823.31;;;24.59;39.70
64292;BME280;50628;51.008;13.658;2022-07-04T19:47:43;99831.75;;;24.50;39.70
64292;BME280;50628;51.008;13.658;2022-07-04T19:52:46;99841.47;;;24.17;40.07
64292;BME280;50628;51.008;13.658;2022-07-04T19:57:48;99849.06;;;24.07;40.06
64292;BME280;50628;51.008;13.658;2022-07-04T20:02:52;99863.78;;;24.10;41.29
64292;BME280;50628;51.008;13.658;2022-07-04T20:07:56;99885.31;;;23.42;44.11
64292;BME280;50628;51.008;13.658;2022-07-04T20:12:58;99886.09;;;23.09;44.87
64292;BME280;50628;51.008;13.658;2022-07-04T20:17:59;99879.75;;;23.03;44.28
64292;BME280;50628;51.008;13.658;2022-07-04T20:23:03;99879.56;;;23.11;45.45
64292;BME280;50628;51.008;13.658;2022-07-04T20:28:05;99884.94;;;22.77;46.49
64292;BME280;50628;51.008;13.658;2022-07-04T20:33:07;99889.78;;;22.60;46.50
64292;BME280;50628;51.008;13.658;2022-07-04T20:38:11;99886.72;;;22.56;47.24
64292;BME280;50628;51.008;13.658;2022-07-04T20:43:14;99897.09;;;22.16;50.01
64292;BME280;50628;51.008;13.658;2022-07-04T20:48:17;99901.53;;;22.02;50.44
64292;BME280;50628;51.008;13.658;2022-07-04T20:53:21;99901.13;;;22.06;51.17
64292;BME280;50628;51.008;13.658;2022-07-04T20:58:23;99908.38;;;21.90;49.78
64292;BME280;50628;51.008;13.658;2022-07-04T21:03:25;99917.22;;;21.76;50.92
64292;BME280;50628;51.008;13.658;2022-07-04T21:08:29;99913.69;;;21.69;50.87
64292;BME280;50628;51.008;13.658;2022-07-04T21:13:31;99927.25;;;21.59;51.61
64292;BME280;50628;51.008;13.658;2022-07-04T21:18:32;99926.06;;;21.61;50.49
64292;BME280;50628;51.008;13.658;2022-07-04T21:23:36;99945.94;;;21.51;51.55
64292;BME280;50628;51.008;13.658;2022-07-04T21:28:38;99947.06;;;21.42;53.24
64292;BME280;50628;51.008;13.658;2022-07-04T21:33:40;99954.78;;;21.22;53.76
64292;BME280;50628;51.008;13.658;2022-07-04T21:38:45;99944.13;;;21.15;54.57
64292;BME280;50628;51.008;13.658;2022-07-04T21:43:47;99937.53;;;21.04;54.44
64292;BME280;50628;51.008;13.658;2022-07-04T21:48:48;99958.81;;;20.81;55.73
64292;BME280;50628;51.008;13.658;2022-07-04T21:53:52;99963.38;;;20.87;55.18
64292;BME280;50628;51.008;13.658;2022-07-04T21:58:53;99959.94;;;20.72;55.36
64292;BME280;50628;51.008;13.658;2022-07-04T22:03:56;99956.91;;;20.75;54.88
64292;BME280;50628;51.008;13.658;2022-07-04T22:08:59;99966.59;;;20.68;55.56
64292;BME280;50628;51.008;13.658;2022-07-04T22:14:01;99966.84;;;20.58;56.22
64292;BME280;50628;51.008;13.658;2022-07-04T22:19:03;99962.28;;;20.52;56.18
64292;BME280;50628;51.008;13.658;2022-07-04T22:24:06;99954.06;;;20.47;56.50
64292;BME280;50628;51.008;13.658;2022-07-04T22:29:08;99960.56;;;20.44;56.86
64292;BME280;50628;51.008;13.658;2022-07-04T22:34:10;99965.34;;;20.26;57.02
64292;BME280;50628;51.008;13.658;2022-07-04T22:39:13;99960.91;;;20.12;57.86
64292;BME280;50628;51.008;13.658;2022-07-04T22:44:15;99959.88;;;20.13;57.54
64292;BME280;50628;51.008;13.658;2022-07-04T22:49:17;99967.91;;;20.04;57.69
64292;BME280;50628;51.008;13.658;2022-07-04T22:54:20;99966.97;;;19.97;58.21
64292;BME280;50628;51.008;13.658;2022-07-04T22:59:39;99969.50;;;19.91;58.35
64292;BME280;50628;51.008;13.658;2022-07-04T23:04:41;99975.94;;;19.73;59.38
64292;BME280;50628;51.008;13.658;2022-07-04T23:09:44;99990.31;;;19.71;60.27
64292;BME280;50628;51.008;13.658;2022-07-04T23:14:47;99982.25;;;19.64;60.52
64292;BME280;50628;51.008;13.658;2022-07-04T23:19:49;99979.94;;;19.38;61.92
64292;BME280;50628;51.008;13.658;2022-07-04T23:24:52;99983.13;;;19.33;62.20
64292;BME280;50628;51.008;13.658;2022-07-04T23:29:54;99982.88;;;19.12;63.03
64292;BME280;50628;51.008;13.658;2022-07-04T23:34:55;99976.09;;;19.17;62.76
64292;BME280;50628;51.008;13.658;2022-07-04T23:39:58;99979.88;;;19.23;63.01
64292;BME280;50628;51.008;13.658;2022-07-04T23:45:00;99981.41;;;19.09;62.96
64292;BME280;50628;51.008;13.658;2022-07-04T23:50:03;99984.66;;;18.88;63.76
64292;BME280;50628;51.008;13.658;2022-07-04T23:55:07;99985.00;;;18.85;64.11
